createdAt,value
2022-08-22T00:00:21.822Z,7.65
2022-08-22T00:02:45.362Z,4.60
2022-08-22T00:02:53.533Z,6.05
2022-08-22T00:03:00.667Z,6.20
2022-08-22T00:03:10.470Z,6.78
2022-08-22T00:03:12.285Z,4.40
2022-08-22T00:06:08.492Z,7.15
2022-08-22T00:09:06.094Z,7.20
2022-08-22T00:12:08.787Z,6.90
2022-08-22T00:15:03.511Z,6.80
2022-08-22T00:17:45.542Z,6.20
2022-08-22T00:20:32.813Z,6.47
2022-08-22T00:23:25.028Z,6.38
2022-08-22T00:25:59.534Z,6.50
2022-08-22T00:28:44.542Z,6.45
2022-08-22T00:31:43.776Z,6.97
2022-08-22T00:34:15.964Z,7.38
2022-08-22T00:36:53.159Z,6.78
2022-08-22T00:39:31.334Z,7.07
2022-08-22T00:42:15.906Z,7.65
2022-08-22T00:45:15.339Z,6.55
2022-08-22T00:47:52.256Z,6.55
2022-08-22T00:50:27.087Z,6.28
2022-08-22T00:53:21.650Z,6.57
2022-08-22T00:56:10.010Z,6.78
2022-08-22T00:58:51.903Z,6.35
2022-08-22T01:01:29.907Z,6.32
2022-08-22T01:04:16.031Z,6.35
2022-08-22T01:07:15.086Z,6.60
2022-08-22T01:09:44.852Z,6.50
2022-08-22T01:12:49.800Z,6.95
2022-08-22T01:15:24.624Z,6.97
2022-08-22T01:18:16.343Z,7.18
2022-08-22T01:21:20.843Z,6.65
2022-08-22T01:24:28.609Z,5.95
2022-08-22T01:30:17.011Z,6.40
2022-08-22T01:33:31.484Z,7.07
2022-08-22T01:36:23.905Z,7.18
2022-08-22T01:38:59.655Z,7.13
2022-08-22T01:41:44.916Z,7.00
2022-08-22T01:44:20.955Z,6.50
2022-08-22T01:46:54.146Z,6.32
2022-08-22T01:49:22.973Z,6.00
2022-08-22T01:52:07.930Z,6.47
2022-08-22T01:54:58.197Z,6.68
2022-08-22T01:57:26.337Z,6.80
2022-08-22T01:59:59.124Z,6.35
2022-08-22T02:02:57.298Z,6.30
2022-08-22T02:05:27.646Z,5.47
2022-08-22T02:08:02.992Z,6.97
2022-08-22T02:11:00.456Z,6.13
2022-08-22T02:13:50.143Z,5.95
2022-08-22T02:16:38.642Z,5.82
2022-08-22T02:19:14.725Z,6.30
2022-08-22T02:22:09.419Z,6.22
2022-08-22T02:25:04.382Z,6.93
2022-08-22T02:27:46.602Z,6.68
2022-08-22T02:30:20.343Z,7.05
2022-08-22T02:33:08.545Z,7.53
2022-08-22T02:35:57.493Z,7.10
2022-08-22T02:38:36.493Z,6.22
2022-08-22T02:41:43.948Z,6.30
2022-08-22T02:44:28.515Z,5.97
2022-08-22T02:47:09.770Z,6.05
2022-08-22T02:49:48.110Z,6.10
2022-08-22T02:52:25.135Z,6.88
2022-08-22T02:55:13.245Z,6.45
2022-08-22T02:57:52.592Z,6.20
2022-08-22T03:00:31.485Z,8.00
2022-08-22T03:03:14.904Z,7.47
2022-08-22T03:05:49.309Z,6.25
2022-08-22T03:08:24.694Z,7.28
2022-08-22T03:10:54.675Z,6.88
2022-08-22T03:13:35.825Z,7.10
2022-08-22T03:16:36.989Z,7.22
2022-08-22T03:19:18.731Z,5.18
2022-08-22T03:21:55.597Z,5.85
2022-08-22T03:24:38.606Z,6.30
2022-08-22T03:27:27.813Z,6.93
2022-08-22T03:30:12.242Z,6.00
2022-08-22T03:32:47.814Z,7.75
2022-08-22T03:35:46.166Z,8.02
2022-08-22T03:38:33.569Z,7.43
2022-08-22T03:41:18.160Z,6.68
2022-08-22T03:44:17.833Z,6.10
2022-08-22T03:47:12.395Z,6.57
2022-08-22T03:49:45.197Z,7.03
2022-08-22T03:53:00.351Z,7.65
2022-08-22T03:55:39.557Z,7.47
2022-08-22T03:58:39.314Z,8.20
2022-08-22T04:01:42.787Z,9.02
2022-08-22T04:04:21.362Z,8.60
2022-08-22T04:06:57.514Z,8.38
2022-08-22T04:09:37.615Z,7.57
2022-08-22T04:12:39.234Z,7.70
2022-08-22T04:15:29.735Z,8.55
2022-08-22T04:18:19.288Z,8.73
2022-08-22T04:21:16.278Z,6.90
2022-08-22T04:24:31.107Z,7.95
2022-08-22T04:27:20.938Z,7.47
2022-08-22T04:30:14.310Z,7.57
2022-08-22T04:32:43.358Z,8.07
2022-08-22T04:35:32.334Z,8.10
2022-08-22T04:38:01.316Z,7.70
2022-08-22T04:40:43.340Z,8.35
2022-08-22T04:43:35.932Z,8.95
2022-08-22T04:46:02.672Z,9.57
2022-08-22T04:48:38.649Z,9.02
2022-08-22T04:51:25.318Z,8.88
2022-08-22T04:54:29.456Z,8.32
2022-08-22T04:57:32.574Z,8.38
2022-08-22T05:00:06.074Z,7.40
2022-08-22T05:05:14.151Z,6.97
2022-08-22T05:07:53.537Z,7.07
2022-08-22T05:10:26.046Z,7.28
2022-08-22T05:13:02.721Z,7.75
2022-08-22T05:15:38.485Z,7.55
2022-08-22T05:18:09.921Z,7.68
2022-08-22T05:20:40.127Z,7.22
2022-08-22T05:23:17.597Z,9.10
2022-08-22T05:25:49.557Z,10.88
2022-08-22T05:28:34.398Z,9.30
2022-08-22T05:31:18.531Z,7.75
2022-08-22T05:33:55.057Z,9.40
2022-08-22T05:36:25.407Z,8.15
2022-08-22T05:39:07.679Z,9.85
2022-08-22T05:41:37.889Z,8.77
2022-08-22T05:44:13.683Z,8.05
2022-08-22T05:46:46.831Z,7.78
2022-08-22T05:49:40.263Z,6.97
2022-08-22T05:52:22.682Z,7.32
2022-08-22T05:55:03.211Z,8.40
2022-08-22T05:57:38.121Z,8.18
2022-08-22T06:00:12.314Z,7.90
2022-08-22T06:03:09.314Z,7.40
2022-08-22T06:05:39.973Z,8.95
2022-08-22T06:08:22.513Z,9.02
2022-08-22T06:10:56.900Z,9.10
2022-08-22T06:13:50.457Z,9.98
2022-08-22T06:16:20.455Z,10.13
2022-08-22T06:18:50.455Z,9.50
2022-08-22T06:21:41.897Z,9.55
2022-08-22T06:24:16.063Z,11.70
2022-08-22T06:26:48.818Z,9.55
2022-08-22T06:29:39.473Z,12.05
2022-08-22T06:32:15.866Z,11.35
2022-08-22T06:34:45.345Z,10.48
2022-08-22T06:37:37.387Z,10.45
2022-08-22T06:40:07.791Z,9.05
2022-08-22T06:42:40.861Z,9.80
2022-08-22T06:45:25.279Z,9.63
2022-08-22T06:48:06.270Z,10.85
2022-08-22T06:50:37.503Z,10.25
2022-08-22T06:53:06.485Z,9.40
2022-08-22T06:55:36.428Z,9.80
2022-08-22T06:58:06.348Z,10.80
2022-08-22T07:00:35.173Z,10.13
2022-08-22T07:03:15.070Z,10.45
2022-08-22T07:05:42.924Z,11.25
2022-08-22T07:08:13.592Z,10.85
2022-08-22T07:10:43.495Z,11.27
2022-08-22T07:13:16.255Z,11.52
2022-08-22T07:15:43.518Z,10.68
2022-08-22T07:18:19.093Z,9.98
2022-08-22T07:20:59.195Z,10.43
2022-08-22T07:23:58.355Z,9.63
2022-08-22T07:26:31.554Z,9.23
2022-08-22T07:29:01.789Z,9.18
2022-08-22T07:31:46.519Z,9.55
2022-08-22T07:34:27.838Z,8.00
2022-08-22T07:37:13.191Z,8.70
2022-08-22T07:39:56.354Z,7.57
2022-08-22T07:42:36.049Z,6.82
2022-08-22T07:45:11.506Z,7.75
2022-08-22T07:48:03.064Z,6.97
2022-08-22T07:50:34.868Z,6.90
2022-08-22T07:53:30.529Z,6.63
2022-08-22T07:56:00.089Z,7.53
2022-08-22T07:58:29.477Z,6.90
2022-08-22T08:00:58.053Z,6.68
2022-08-22T08:03:29.818Z,5.88
2022-08-22T08:05:57.137Z,6.65
2022-08-22T08:08:38.683Z,6.18
2022-08-22T08:11:10.579Z,6.25
2022-08-22T08:13:45.054Z,6.57
2022-08-22T08:16:21.674Z,6.13
2022-08-22T08:18:50.986Z,5.70
2022-08-22T08:21:42.859Z,5.28
2022-08-22T08:24:15.751Z,5.13
2022-08-22T08:27:08.010Z,4.70
2022-08-22T08:29:37.001Z,4.75
2022-08-22T08:32:09.278Z,5.00
2022-08-22T08:34:38.956Z,4.10
2022-08-22T08:37:17.096Z,4.30
2022-08-22T08:39:50.586Z,3.85
2022-08-22T08:42:58.427Z,3.78
2022-08-22T08:46:02.320Z,4.57
2022-08-22T08:48:57.619Z,3.50
2022-08-22T08:52:15.698Z,2.75
2022-08-22T08:54:56.857Z,2.65
2022-08-22T08:58:07.091Z,2.35
2022-08-22T09:00:51.292Z,2.00
2022-08-22T09:03:51.410Z,2.20
2022-08-22T09:06:38.379Z,2.28
2022-08-22T09:09:52.424Z,1.92
2022-08-22T09:12:59.782Z,1.70
2022-08-22T09:16:04.760Z,1.40
2022-08-22T09:18:41.187Z,1.20
2022-08-22T09:21:31.515Z,1.40
2022-08-22T09:24:42.844Z,1.33
2022-08-22T09:27:18.449Z,1.70
2022-08-22T09:29:57.118Z,1.50
2022-08-22T09:32:52.455Z,1.50
2022-08-22T09:35:34.748Z,1.73
2022-08-22T09:38:25.839Z,1.88
2022-08-22T09:41:19.469Z,1.80
2022-08-22T09:44:00.729Z,1.75
2022-08-22T09:46:37.141Z,1.52
2022-08-22T09:49:21.678Z,1.30
2022-08-22T09:52:34.027Z,1.70
2022-08-22T09:55:01.660Z,1.67
2022-08-22T09:57:51.048Z,1.80
2022-08-22T10:00:31.844Z,1.50
2022-08-22T10:03:03.646Z,1.60
2022-08-22T10:05:47.855Z,1.30
2022-08-22T10:08:26.239Z,1.73
2022-08-22T10:11:18.858Z,1.50
2022-08-22T10:13:57.427Z,1.63
2022-08-22T10:16:52.035Z,1.60
2022-08-22T10:19:39.931Z,1.90
2022-08-22T10:22:37.788Z,1.75
2022-08-22T10:25:24.403Z,1.83
2022-08-22T10:28:03.338Z,1.80
2022-08-22T10:31:17.831Z,2.38
2022-08-22T10:37:10.333Z,1.70
2022-08-22T10:39:56.475Z,1.77
2022-08-22T10:42:27.878Z,1.50
2022-08-22T10:45:23.746Z,1.73
2022-08-22T10:48:08.612Z,1.80
2022-08-22T10:50:47.695Z,1.75
2022-08-22T10:53:35.855Z,1.50
2022-08-22T10:56:27.501Z,1.70
2022-08-22T10:59:04.166Z,1.60
2022-08-22T11:01:41.949Z,1.30
2022-08-22T11:04:28.565Z,2.10
2022-08-22T11:07:21.903Z,1.90
2022-08-22T11:09:59.863Z,1.58
2022-08-22T11:12:37.279Z,1.70
2022-08-22T11:15:33.257Z,1.63
2022-08-22T11:18:20.472Z,1.60
2022-08-22T11:21:00.734Z,1.50
2022-08-22T11:23:58.147Z,1.55
2022-08-22T11:26:47.336Z,2.00
2022-08-22T11:29:35.329Z,1.90
2022-08-22T11:32:23.099Z,1.55
2022-08-22T11:35:01.512Z,1.50
2022-08-22T11:38:03.105Z,1.70
2022-08-22T11:40:47.875Z,1.70
2022-08-22T11:43:32.910Z,2.00
2022-08-22T11:46:19.909Z,1.70
2022-08-22T11:49:03.415Z,1.73
2022-08-22T11:52:03.458Z,1.67
2022-08-22T11:54:36.462Z,1.40
2022-08-22T11:57:17.366Z,1.95
2022-08-22T11:59:50.379Z,1.50
2022-08-22T12:02:56.997Z,2.03
2022-08-22T12:05:46.475Z,1.60
2022-08-22T12:08:21.212Z,1.50
2022-08-22T12:11:16.670Z,1.67
2022-08-22T12:14:05.997Z,1.75
2022-08-22T12:16:47.403Z,1.27
2022-08-22T12:19:26.470Z,1.58
2022-08-22T12:22:03.046Z,1.50
2022-08-22T12:25:07.046Z,1.20
2022-08-22T12:27:36.642Z,1.30
2022-08-22T12:30:14.202Z,1.60
2022-08-22T12:33:00.719Z,1.55
2022-08-22T12:35:38.189Z,1.30
2022-08-22T12:38:27.960Z,1.23
2022-08-22T12:41:35.216Z,1.38
2022-08-22T12:44:17.638Z,1.30
2022-08-22T12:47:09.204Z,1.42
2022-08-22T12:49:49.873Z,1.60
2022-08-22T12:53:02.978Z,1.33
2022-08-22T12:55:50.471Z,1.55
2022-08-22T12:58:33.970Z,1.55
2022-08-22T13:01:06.276Z,1.47
2022-08-22T13:03:56.115Z,1.38
2022-08-22T13:06:35.124Z,1.58
2022-08-22T13:09:19.785Z,1.30
2022-08-22T13:12:04.637Z,1.50
2022-08-22T13:14:34.130Z,1.40
2022-08-22T13:17:10.198Z,1.92
2022-08-22T13:19:59.721Z,1.50
2022-08-22T13:22:29.573Z,1.50
2022-08-22T13:25:08.655Z,1.70
2022-08-22T13:27:50.967Z,1.55
2022-08-22T13:30:42.248Z,1.77
2022-08-22T13:33:22.519Z,1.83
2022-08-22T13:36:04.558Z,1.70
2022-08-22T13:38:46.322Z,1.80
2022-08-22T13:41:27.123Z,1.70
2022-08-22T13:44:08.934Z,1.80
2022-08-22T13:46:52.721Z,1.63
2022-08-22T13:49:52.581Z,1.90
2022-08-22T13:52:34.079Z,2.00
2022-08-22T13:55:27.634Z,1.70
2022-08-22T13:58:02.366Z,1.73
2022-08-22T14:00:57.276Z,1.70
2022-08-22T14:03:35.014Z,1.80
2022-08-22T14:06:35.305Z,1.95
2022-08-22T14:09:17.388Z,1.70
2022-08-22T14:12:18.447Z,2.20
2022-08-22T14:14:52.464Z,1.80
2022-08-22T14:17:24.273Z,1.83
2022-08-22T14:20:02.114Z,2.05
2022-08-22T14:22:35.883Z,1.85
2022-08-22T14:25:19.435Z,2.15
2022-08-22T14:27:57.687Z,2.10
2022-08-22T14:30:32.888Z,1.88
2022-08-22T14:33:19.878Z,1.92
2022-08-22T14:36:04.393Z,2.15
2022-08-22T14:38:39.391Z,1.98
2022-08-22T14:41:52.998Z,2.17
2022-08-22T14:44:25.278Z,2.22
2022-08-22T14:47:04.273Z,2.53
2022-08-22T14:49:56.271Z,2.20
2022-08-22T14:52:34.427Z,1.70
2022-08-22T14:55:26.065Z,2.35
2022-08-22T14:58:03.322Z,2.20
2022-08-22T15:00:37.285Z,2.40
2022-08-22T15:03:13.762Z,2.45
2022-08-22T15:05:53.046Z,2.65
2022-08-22T15:08:24.263Z,2.13
2022-08-22T15:11:20.506Z,2.22
2022-08-22T15:14:21.347Z,1.92
2022-08-22T15:16:57.683Z,2.30
2022-08-22T15:19:27.241Z,1.75
2022-08-22T15:22:16.484Z,2.00
2022-08-22T15:24:54.991Z,1.80
2022-08-22T15:27:25.450Z,2.15
2022-08-22T15:29:59.627Z,2.33
2022-08-22T15:32:30.880Z,2.08
2022-08-22T15:35:14.820Z,2.33
2022-08-22T15:37:56.330Z,2.08
2022-08-22T15:40:29.400Z,1.75
2022-08-22T15:43:00.176Z,1.90
2022-08-22T15:45:38.594Z,2.33
2022-08-22T15:48:11.248Z,2.00
2022-08-22T15:51:00.203Z,2.30
2022-08-22T15:53:50.818Z,2.17
2022-08-22T15:56:27.419Z,1.95
2022-08-22T15:59:53.745Z,2.42
2022-08-22T16:02:30.487Z,2.05
2022-08-22T16:05:25.021Z,2.10
2022-08-22T16:07:57.868Z,2.25
2022-08-22T16:10:24.806Z,1.75
2022-08-22T16:13:33.801Z,2.00
2022-08-22T16:16:12.304Z,1.88
2022-08-22T16:18:45.276Z,1.92
2022-08-22T16:21:22.888Z,2.05
2022-08-22T16:23:56.680Z,2.10
2022-08-22T16:26:29.529Z,1.90
2022-08-22T16:28:59.484Z,1.80
2022-08-22T16:31:32.611Z,1.98
2022-08-22T16:34:22.672Z,2.28
2022-08-22T16:37:14.575Z,2.00
2022-08-22T16:39:43.140Z,2.60
2022-08-22T16:42:15.771Z,2.30
2022-08-22T16:44:47.687Z,2.40
2022-08-22T16:47:19.731Z,2.50
2022-08-22T16:49:49.206Z,2.65
2022-08-22T16:52:24.727Z,2.83
2022-08-22T16:55:03.754Z,2.70
2022-08-22T16:58:10.081Z,2.72
2022-08-22T17:00:48.743Z,2.60
2022-08-22T17:03:41.079Z,2.45
2022-08-22T17:06:32.276Z,2.63
2022-08-22T17:09:27.053Z,2.60
2022-08-22T17:12:13.563Z,2.67
2022-08-22T17:14:54.704Z,3.20
2022-08-22T17:17:49.500Z,2.90
2022-08-22T17:20:43.929Z,2.70
2022-08-22T17:23:17.077Z,3.15
2022-08-22T17:25:52.749Z,2.83
2022-08-22T17:28:41.106Z,3.13
2022-08-22T17:31:15.624Z,3.50
2022-08-22T17:34:12.544Z,2.65
2022-08-22T17:36:56.963Z,3.00
2022-08-22T17:39:42.202Z,3.10
2022-08-22T17:42:41.358Z,3.30
2022-08-22T17:45:22.420Z,3.13
2022-08-22T17:48:20.596Z,3.20
2022-08-22T17:51:10.968Z,3.30
2022-08-22T17:53:52.710Z,2.95
2022-08-22T17:56:25.772Z,3.35
2022-08-22T17:59:05.115Z,3.13
2022-08-22T18:01:41.215Z,3.33
2022-08-22T18:04:19.112Z,2.83
2022-08-22T18:06:56.556Z,3.63
2022-08-22T18:09:44.019Z,3.28
2022-08-22T18:12:33.674Z,3.20
2022-08-22T18:15:33.896Z,3.50
2022-08-22T18:18:20.999Z,3.20
2022-08-22T18:21:02.443Z,3.47
2022-08-22T18:23:40.226Z,3.60
2022-08-22T18:26:33.785Z,3.65
2022-08-22T18:29:09.787Z,3.47
2022-08-22T18:31:55.035Z,3.10
2022-08-22T18:34:54.072Z,3.42
2022-08-22T18:37:32.938Z,3.38
2022-08-22T18:40:13.437Z,2.97
2022-08-22T18:43:05.873Z,3.40
2022-08-22T18:45:48.012Z,3.45
2022-08-22T18:48:59.391Z,3.53
2022-08-22T18:54:06.790Z,3.75
2022-08-22T18:56:58.116Z,3.65
2022-08-22T18:59:43.594Z,4.07
2022-08-22T19:02:22.236Z,3.63
2022-08-22T19:05:32.694Z,3.10
2022-08-22T19:08:27.856Z,3.40
2022-08-22T19:11:18.951Z,3.60
2022-08-22T19:14:09.870Z,3.40
2022-08-22T19:16:48.908Z,3.65
2022-08-22T19:19:23.070Z,3.30
2022-08-22T19:22:20.795Z,3.28
2022-08-22T19:25:26.439Z,3.70
2022-08-22T19:28:11.557Z,3.20
2022-08-22T19:30:47.510Z,3.30
2022-08-22T19:33:29.268Z,3.45
2022-08-22T19:36:09.996Z,3.40
2022-08-22T19:38:57.396Z,3.25
2022-08-22T19:41:59.689Z,3.72
2022-08-22T19:44:26.407Z,3.47
2022-08-22T19:47:07.217Z,3.50
2022-08-22T19:49:45.023Z,5.00
2022-08-22T19:52:44.455Z,4.47
2022-08-22T19:55:22.363Z,4.28
2022-08-22T19:57:52.063Z,4.90
2022-08-22T20:00:41.090Z,4.05
2022-08-22T20:03:17.231Z,4.40
2022-08-22T20:06:43.084Z,4.15
2022-08-22T20:09:29.287Z,4.43
2022-08-22T20:12:01.678Z,3.92
2022-08-22T20:14:30.242Z,4.35
2022-08-22T20:17:06.540Z,4.72
2022-08-22T20:20:16.449Z,4.50
2022-08-22T20:22:39.179Z,4.47
2022-08-22T20:25:43.370Z,5.00
2022-08-22T20:28:13.687Z,4.97
2022-08-22T20:30:44.579Z,5.28
2022-08-22T20:33:21.618Z,4.90
2022-08-22T20:35:52.831Z,4.70
2022-08-22T20:38:25.943Z,5.00
2022-08-22T20:41:13.511Z,4.50
2022-08-22T20:43:51.469Z,4.68
2022-08-22T20:46:46.113Z,4.60
2022-08-22T20:49:34.568Z,4.10
2022-08-22T20:52:06.194Z,4.20
2022-08-22T20:54:37.965Z,4.35
2022-08-22T20:57:17.174Z,4.53
2022-08-22T20:59:55.688Z,4.25
2022-08-22T21:02:36.252Z,4.22
2022-08-22T21:05:12.624Z,4.97
2022-08-22T21:07:43.065Z,4.95
2022-08-22T21:10:34.312Z,5.28
2022-08-22T21:13:05.799Z,4.90
2022-08-22T21:15:36.350Z,5.70
2022-08-22T21:18:03.591Z,5.32
2022-08-22T21:20:34.246Z,5.30
2022-08-22T21:23:08.811Z,5.43
2022-08-22T21:25:56.631Z,5.30
2022-08-22T21:28:38.047Z,5.60
2022-08-22T21:31:25.459Z,5.60
2022-08-22T21:33:55.072Z,6.32
2022-08-22T21:36:25.227Z,5.15
2022-08-22T21:38:59.544Z,5.68
2022-08-22T21:41:31.942Z,5.82
2022-08-22T21:44:26.947Z,5.10
2022-08-22T21:46:54.728Z,4.72
2022-08-22T21:49:27.568Z,4.85
2022-08-22T21:51:54.468Z,4.68
2022-08-22T21:54:31.260Z,5.15
2022-08-22T21:57:14.310Z,5.30
2022-08-22T21:59:52.006Z,5.40
2022-08-22T22:02:41.056Z,5.20
2022-08-22T22:05:11.659Z,5.40
2022-08-22T22:07:44.693Z,5.25
2022-08-22T22:10:14.450Z,5.10
2022-08-22T22:12:42.794Z,5.20
2022-08-22T22:15:13.870Z,5.35
2022-08-22T22:17:40.654Z,5.47
2022-08-22T22:20:08.758Z,5.43
2022-08-22T22:22:37.068Z,5.72
2022-08-22T22:25:40.233Z,6.00
2022-08-22T22:28:14.903Z,5.57
2022-08-22T22:30:42.630Z,6.05
2022-08-22T22:33:10.150Z,5.45
2022-08-22T22:35:39.150Z,5.22
2022-08-22T22:38:07.120Z,5.43
2022-08-22T22:40:34.069Z,5.25
2022-08-22T22:43:00.941Z,5.45
2022-08-22T22:45:27.768Z,5.25
2022-08-22T22:47:54.536Z,5.75
2022-08-22T22:50:21.667Z,5.72
2022-08-22T22:52:48.584Z,5.60
2022-08-22T22:55:24.683Z,5.25
2022-08-22T22:57:58.804Z,5.90
2022-08-22T23:00:29.158Z,5.18
2022-08-22T23:03:00.465Z,5.63
2022-08-22T23:05:28.462Z,5.60
2022-08-22T23:07:55.482Z,5.60
2022-08-22T23:10:22.384Z,5.75
2022-08-22T23:12:49.283Z,5.90
2022-08-22T23:15:16.697Z,5.88
2022-08-22T23:17:43.797Z,5.85
2022-08-22T23:20:11.320Z,5.93
2022-08-22T23:22:38.152Z,5.60
2022-08-22T23:25:05.427Z,5.60
2022-08-22T23:27:32.297Z,5.80
2022-08-22T23:29:59.299Z,5.35
2022-08-22T23:32:26.108Z,5.55
2022-08-22T23:34:53.593Z,5.65
2022-08-22T23:37:22.031Z,5.38
2022-08-22T23:39:49.495Z,5.97
2022-08-22T23:42:18.039Z,5.43
2022-08-22T23:44:45.853Z,6.05
2022-08-22T23:47:15.261Z,6.00
2022-08-22T23:49:43.208Z,5.10
2022-08-22T23:52:12.455Z,5.22
2022-08-22T23:54:39.366Z,5.75
2022-08-22T23:57:11.468Z,5.57
2022-08-22T23:59:46.441Z,6.00
